sensor_id;sensor_type;location;lat;lon;timestamp;P1;durP1;ratioP1;P2;durP2;ratioP2
6131;SDS011;3097;42.692;23.278;2023-11-21T00:02:13;118.90;;;51.93;;
6131;SDS011;3097;42.692;23.278;2023-11-21T00:04:38;131.30;;;54.03;;
6131;SDS011;3097;42.692;23.278;2023-11-21T00:07:04;129.27;;;53.70;;
6131;SDS011;3097;42.692;23.278;2023-11-21T00:09:31;190.60;;;74.87;;
6131;SDS011;3097;42.692;23.278;2023-11-21T00:11:57;150.70;;;62.70;;
6131;SDS011;3097;42.692;23.278;2023-11-21T00:14:24;127.50;;;53.13;;
6131;SDS011;3097;42.692;23.278;2023-11-21T00:16:50;126.67;;;53.03;;
6131;SDS011;3097;42.692;23.278;2023-11-21T00:19:16;114.57;;;49.47;;
6131;SDS011;3097;42.692;23.278;2023-11-21T00:21:41;112.33;;;48.87;;
6131;SDS011;3097;42.692;23.278;2023-11-21T00:24:09;113.10;;;47.93;;
6131;SDS011;3097;42.692;23.278;2023-11-21T00:26:35;105.27;;;45.87;;
6131;SDS011;3097;42.692;23.278;2023-11-21T00:29:03;105.93;;;45.97;;
6131;SDS011;3097;42.692;23.278;2023-11-21T00:31:28;113.97;;;46.93;;
6131;SDS011;3097;42.692;23.278;2023-11-21T00:33:55;106.93;;;46.87;;
6131;SDS011;3097;42.692;23.278;2023-11-21T00:36:21;114.53;;;45.43;;
6131;SDS011;3097;42.692;23.278;2023-11-21T00:38:46;101.50;;;44.43;;
6131;SDS011;3097;42.692;23.278;2023-11-21T00:41:13;103.63;;;45.73;;
6131;SDS011;3097;42.692;23.278;2023-11-21T00:43:39;93.73;;;42.03;;
6131;SDS011;3097;42.692;23.278;2023-11-21T00:46:05;102.63;;;44.30;;
6131;SDS011;3097;42.692;23.278;2023-11-21T00:48:33;108.90;;;46.93;;
6131;SDS011;3097;42.692;23.278;2023-11-21T00:50:58;108.10;;;47.87;;
6131;SDS011;3097;42.692;23.278;2023-11-21T00:53:24;116.03;;;48.33;;
6131;SDS011;3097;42.692;23.278;2023-11-21T00:55:49;114.87;;;50.00;;
6131;SDS011;3097;42.692;23.278;2023-11-21T00:58:17;115.37;;;50.50;;
6131;SDS011;3097;42.692;23.278;2023-11-21T01:00:42;160.50;;;69.30;;
6131;SDS011;3097;42.692;23.278;2023-11-21T01:03:08;123.70;;;52.23;;
6131;SDS011;3097;42.692;23.278;2023-11-21T01:05:34;115.40;;;50.60;;
6131;SDS011;3097;42.692;23.278;2023-11-21T01:08:00;114.87;;;51.20;;
6131;SDS011;3097;42.692;23.278;2023-11-21T01:10:25;124.13;;;54.03;;
6131;SDS011;3097;42.692;23.278;2023-11-21T01:12:51;125.93;;;56.30;;
6131;SDS011;3097;42.692;23.278;2023-11-21T01:15:16;134.87;;;56.30;;
6131;SDS011;3097;42.692;23.278;2023-11-21T01:17:42;140.33;;;58.67;;
6131;SDS011;3097;42.692;23.278;2023-11-21T01:20:08;137.57;;;58.33;;
6131;SDS011;3097;42.692;23.278;2023-11-21T01:22:36;149.83;;;58.33;;
6131;SDS011;3097;42.692;23.278;2023-11-21T01:25:02;135.33;;;57.97;;
6131;SDS011;3097;42.692;23.278;2023-11-21T01:27:31;125.47;;;52.13;;
6131;SDS011;3097;42.692;23.278;2023-11-21T01:29:57;120.47;;;50.93;;
6131;SDS011;3097;42.692;23.278;2023-11-21T01:32:22;101.10;;;45.30;;
6131;SDS011;3097;42.692;23.278;2023-11-21T01:34:49;105.47;;;46.33;;
6131;SDS011;3097;42.692;23.278;2023-11-21T01:37:15;99.27;;;43.97;;
6131;SDS011;3097;42.692;23.278;2023-11-21T01:39:42;107.30;;;46.57;;
6131;SDS011;3097;42.692;23.278;2023-11-21T01:42:09;92.17;;;43.40;;
6131;SDS011;3097;42.692;23.278;2023-11-21T01:44:34;92.90;;;42.50;;
6131;SDS011;3097;42.692;23.278;2023-11-21T01:47:01;106.83;;;45.20;;
6131;SDS011;3097;42.692;23.278;2023-11-21T01:49:31;107.03;;;46.13;;
6131;SDS011;3097;42.692;23.278;2023-11-21T01:51:59;102.80;;;43.13;;
6131;SDS011;3097;42.692;23.278;2023-11-21T01:54:26;99.50;;;43.80;;
6131;SDS011;3097;42.692;23.278;2023-11-21T01:56:57;95.43;;;43.63;;
6131;SDS011;3097;42.692;23.278;2023-11-21T01:59:27;113.40;;;45.80;;
6131;SDS011;3097;42.692;23.278;2023-11-21T02:01:59;101.10;;;43.00;;
6131;SDS011;3097;42.692;23.278;2023-11-21T02:04:24;94.23;;;43.80;;
6131;SDS011;3097;42.692;23.278;2023-11-21T02:06:50;91.60;;;43.87;;
6131;SDS011;3097;42.692;23.278;2023-11-21T02:09:16;91.73;;;42.50;;
6131;SDS011;3097;42.692;23.278;2023-11-21T02:11:42;92.83;;;41.80;;
6131;SDS011;3097;42.692;23.278;2023-11-21T02:14:09;97.00;;;41.37;;
6131;SDS011;3097;42.692;23.278;2023-11-21T02:16:35;89.67;;;38.73;;
6131;SDS011;3097;42.692;23.278;2023-11-21T02:19:01;87.13;;;38.70;;
6131;SDS011;3097;42.692;23.278;2023-11-21T02:21:28;88.63;;;36.50;;
6131;SDS011;3097;42.692;23.278;2023-11-21T02:23:55;94.83;;;41.80;;
6131;SDS011;3097;42.692;23.278;2023-11-21T02:26:21;97.60;;;41.50;;
6131;SDS011;3097;42.692;23.278;2023-11-21T02:28:46;96.23;;;41.93;;
6131;SDS011;3097;42.692;23.278;2023-11-21T02:31:12;95.17;;;40.67;;
6131;SDS011;3097;42.692;23.278;2023-11-21T02:33:38;98.13;;;40.33;;
6131;SDS011;3097;42.692;23.278;2023-11-21T02:36:04;88.37;;;39.00;;
6131;SDS011;3097;42.692;23.278;2023-11-21T02:38:30;92.60;;;40.43;;
6131;SDS011;3097;42.692;23.278;2023-11-21T02:40:57;90.13;;;39.57;;
6131;SDS011;3097;42.692;23.278;2023-11-21T02:43:24;81.67;;;38.30;;
6131;SDS011;3097;42.692;23.278;2023-11-21T02:45:49;95.03;;;40.80;;
6131;SDS011;3097;42.692;23.278;2023-11-21T02:48:15;93.77;;;40.30;;
6131;SDS011;3097;42.692;23.278;2023-11-21T02:50:40;87.30;;;39.80;;
6131;SDS011;3097;42.692;23.278;2023-11-21T02:53:06;96.10;;;41.70;;
6131;SDS011;3097;42.692;23.278;2023-11-21T02:55:32;80.43;;;36.83;;
6131;SDS011;3097;42.692;23.278;2023-11-21T02:58:01;88.43;;;38.80;;
6131;SDS011;3097;42.692;23.278;2023-11-21T03:00:26;72.20;;;35.10;;
6131;SDS011;3097;42.692;23.278;2023-11-21T03:02:52;73.80;;;35.97;;
6131;SDS011;3097;42.692;23.278;2023-11-21T03:05:18;77.63;;;34.60;;
6131;SDS011;3097;42.692;23.278;2023-11-21T03:07:43;71.60;;;32.23;;
6131;SDS011;3097;42.692;23.278;2023-11-21T03:10:09;72.70;;;31.90;;
6131;SDS011;3097;42.692;23.278;2023-11-21T03:12:36;69.77;;;31.40;;
6131;SDS011;3097;42.692;23.278;2023-11-21T03:15:02;72.60;;;31.33;;
6131;SDS011;3097;42.692;23.278;2023-11-21T03:17:28;69.03;;;31.33;;
6131;SDS011;3097;42.692;23.278;2023-11-21T03:19:54;64.40;;;31.47;;
6131;SDS011;3097;42.692;23.278;2023-11-21T03:22:20;70.50;;;34.30;;
6131;SDS011;3097;42.692;23.278;2023-11-21T03:24:45;77.73;;;37.13;;
6131;SDS011;3097;42.692;23.278;2023-11-21T03:27:11;92.07;;;42.10;;
6131;SDS011;3097;42.692;23.278;2023-11-21T03:29:37;93.33;;;43.50;;
6131;SDS011;3097;42.692;23.278;2023-11-21T03:32:03;103.10;;;45.07;;
6131;SDS011;3097;42.692;23.278;2023-11-21T03:34:28;93.13;;;44.17;;
6131;SDS011;3097;42.692;23.278;2023-11-21T03:36:54;81.13;;;36.57;;
6131;SDS011;3097;42.692;23.278;2023-11-21T03:39:20;70.20;;;33.20;;
6131;SDS011;3097;42.692;23.278;2023-11-21T03:41:46;65.70;;;32.10;;
6131;SDS011;3097;42.692;23.278;2023-11-21T03:44:12;75.77;;;34.67;;
6131;SDS011;3097;42.692;23.278;2023-11-21T03:46:38;76.63;;;34.03;;
6131;SDS011;3097;42.692;23.278;2023-11-21T03:49:04;78.43;;;35.67;;
6131;SDS011;3097;42.692;23.278;2023-11-21T03:51:29;74.30;;;32.40;;
6131;SDS011;3097;42.692;23.278;2023-11-21T03:53:54;66.27;;;30.47;;
6131;SDS011;3097;42.692;23.278;2023-11-21T03:56:20;67.50;;;33.63;;
6131;SDS011;3097;42.692;23.278;2023-11-21T03:58:47;66.37;;;34.27;;
6131;SDS011;3097;42.692;23.278;2023-11-21T04:01:23;68.50;;;31.73;;
6131;SDS011;3097;42.692;23.278;2023-11-21T04:03:50;63.77;;;30.80;;
6131;SDS011;3097;42.692;23.278;2023-11-21T04:06:16;61.57;;;29.37;;
6131;SDS011;3097;42.692;23.278;2023-11-21T04:08:43;60.27;;;29.33;;
6131;SDS011;3097;42.692;23.278;2023-11-21T04:11:10;65.97;;;30.93;;
6131;SDS011;3097;42.692;23.278;2023-11-21T04:13:39;69.20;;;29.77;;
6131;SDS011;3097;42.692;23.278;2023-11-21T04:16:06;62.33;;;31.57;;
6131;SDS011;3097;42.692;23.278;2023-11-21T04:18:33;67.00;;;29.63;;
6131;SDS011;3097;42.692;23.278;2023-11-21T04:20:59;59.20;;;29.63;;
6131;SDS011;3097;42.692;23.278;2023-11-21T04:23:24;60.53;;;29.67;;
6131;SDS011;3097;42.692;23.278;2023-11-21T04:25:51;58.33;;;27.97;;
6131;SDS011;3097;42.692;23.278;2023-11-21T04:28:17;67.33;;;29.90;;
6131;SDS011;3097;42.692;23.278;2023-11-21T04:30:44;59.77;;;29.83;;
6131;SDS011;3097;42.692;23.278;2023-11-21T04:33:10;60.00;;;28.83;;
6131;SDS011;3097;42.692;23.278;2023-11-21T04:35:35;60.00;;;29.00;;
6131;SDS011;3097;42.692;23.278;2023-11-21T04:38:01;76.87;;;35.00;;
6131;SDS011;3097;42.692;23.278;2023-11-21T04:40:29;80.93;;;35.30;;
6131;SDS011;3097;42.692;23.278;2023-11-21T04:42:55;73.23;;;37.07;;
6131;SDS011;3097;42.692;23.278;2023-11-21T04:45:22;91.77;;;42.43;;
6131;SDS011;3097;42.692;23.278;2023-11-21T04:47:48;87.43;;;41.70;;
6131;SDS011;3097;42.692;23.278;2023-11-21T04:50:13;83.77;;;40.10;;
6131;SDS011;3097;42.692;23.278;2023-11-21T04:52:39;86.70;;;41.87;;
6131;SDS011;3097;42.692;23.278;2023-11-21T04:55:07;96.83;;;42.20;;
6131;SDS011;3097;42.692;23.278;2023-11-21T04:57:36;93.00;;;41.30;;
6131;SDS011;3097;42.692;23.278;2023-11-21T05:00:02;82.23;;;39.97;;
6131;SDS011;3097;42.692;23.278;2023-11-21T05:02:31;82.67;;;40.23;;
6131;SDS011;3097;42.692;23.278;2023-11-21T05:04:59;82.80;;;38.50;;
6131;SDS011;3097;42.692;23.278;2023-11-21T05:07:25;78.37;;;38.37;;
6131;SDS011;3097;42.692;23.278;2023-11-21T05:09:54;77.07;;;37.53;;
6131;SDS011;3097;42.692;23.278;2023-11-21T05:12:21;82.60;;;39.53;;
6131;SDS011;3097;42.692;23.278;2023-11-21T05:14:48;85.17;;;40.20;;
6131;SDS011;3097;42.692;23.278;2023-11-21T05:17:14;80.73;;;37.27;;
6131;SDS011;3097;42.692;23.278;2023-11-21T05:19:39;73.83;;;35.60;;
6131;SDS011;3097;42.692;23.278;2023-11-21T05:22:05;76.93;;;34.80;;
6131;SDS011;3097;42.692;23.278;2023-11-21T05:24:31;69.93;;;33.90;;
6131;SDS011;3097;42.692;23.278;2023-11-21T05:26:56;71.83;;;35.70;;
6131;SDS011;3097;42.692;23.278;2023-11-21T05:29:23;77.60;;;37.87;;
6131;SDS011;3097;42.692;23.278;2023-11-21T05:31:49;84.33;;;37.43;;
6131;SDS011;3097;42.692;23.278;2023-11-21T05:34:15;80.53;;;36.90;;
6131;SDS011;3097;42.692;23.278;2023-11-21T05:36:42;72.37;;;37.27;;
6131;SDS011;3097;42.692;23.278;2023-11-21T05:39:08;74.97;;;37.17;;
6131;SDS011;3097;42.692;23.278;2023-11-21T05:41:35;79.13;;;36.57;;
6131;SDS011;3097;42.692;23.278;2023-11-21T05:44:00;77.93;;;36.93;;
6131;SDS011;3097;42.692;23.278;2023-11-21T05:46:26;73.17;;;34.00;;
6131;SDS011;3097;42.692;23.278;2023-11-21T05:48:51;76.07;;;35.27;;
6131;SDS011;3097;42.692;23.278;2023-11-21T05:51:17;74.63;;;34.57;;
6131;SDS011;3097;42.692;23.278;2023-11-21T05:53:42;93.93;;;41.43;;
6131;SDS011;3097;42.692;23.278;2023-11-21T05:56:08;79.30;;;38.40;;
6131;SDS011;3097;42.692;23.278;2023-11-21T05:58:33;71.53;;;36.80;;
6131;SDS011;3097;42.692;23.278;2023-11-21T06:00:59;90.33;;;42.97;;
6131;SDS011;3097;42.692;23.278;2023-11-21T06:03:24;96.53;;;45.60;;
6131;SDS011;3097;42.692;23.278;2023-11-21T06:05:50;98.40;;;45.00;;
6131;SDS011;3097;42.692;23.278;2023-11-21T06:08:15;112.73;;;45.90;;
6131;SDS011;3097;42.692;23.278;2023-11-21T06:10:42;100.07;;;45.47;;
6131;SDS011;3097;42.692;23.278;2023-11-21T06:13:08;101.23;;;46.70;;
6131;SDS011;3097;42.692;23.278;2023-11-21T06:15:35;103.07;;;47.07;;
6131;SDS011;3097;42.692;23.278;2023-11-21T06:18:01;109.67;;;48.53;;
6131;SDS011;3097;42.692;23.278;2023-11-21T06:20:26;104.37;;;48.20;;
6131;SDS011;3097;42.692;23.278;2023-11-21T06:22:53;120.70;;;50.17;;
6131;SDS011;3097;42.692;23.278;2023-11-21T06:25:19;104.27;;;46.87;;
6131;SDS011;3097;42.692;23.278;2023-11-21T06:27:47;82.07;;;40.07;;
6131;SDS011;3097;42.692;23.278;2023-11-21T06:30:13;83.63;;;40.27;;
6131;SDS011;3097;42.692;23.278;2023-11-21T06:32:40;72.37;;;36.13;;
6131;SDS011;3097;42.692;23.278;2023-11-21T06:35:07;65.90;;;32.47;;
6131;SDS011;3097;42.692;23.278;2023-11-21T06:37:36;63.27;;;30.70;;
6131;SDS011;3097;42.692;23.278;2023-11-21T06:40:02;66.80;;;33.17;;
6131;SDS011;3097;42.692;23.278;2023-11-21T06:42:31;74.60;;;33.13;;
6131;SDS011;3097;42.692;23.278;2023-11-21T06:44:58;76.40;;;35.83;;
6131;SDS011;3097;42.692;23.278;2023-11-21T06:47:24;82.70;;;36.47;;
6131;SDS011;3097;42.692;23.278;2023-11-21T06:49:50;86.43;;;37.57;;
6131;SDS011;3097;42.692;23.278;2023-11-21T06:52:18;80.10;;;36.17;;
6131;SDS011;3097;42.692;23.278;2023-11-21T06:54:45;81.10;;;35.00;;
6131;SDS011;3097;42.692;23.278;2023-11-21T06:57:11;92.90;;;37.00;;
6131;SDS011;3097;42.692;23.278;2023-11-21T06:59:36;78.40;;;36.37;;
6131;SDS011;3097;42.692;23.278;2023-11-21T07:02:02;74.97;;;35.67;;
6131;SDS011;3097;42.692;23.278;2023-11-21T07:04:28;79.97;;;38.10;;
6131;SDS011;3097;42.692;23.278;2023-11-21T07:06:54;79.80;;;38.07;;
6131;SDS011;3097;42.692;23.278;2023-11-21T07:09:19;80.50;;;38.07;;
6131;SDS011;3097;42.692;23.278;2023-11-21T07:11:48;74.70;;;34.73;;
6131;SDS011;3097;42.692;23.278;2023-11-21T07:14:14;69.10;;;33.20;;
6131;SDS011;3097;42.692;23.278;2023-11-21T07:16:42;68.30;;;32.83;;
6131;SDS011;3097;42.692;23.278;2023-11-21T07:19:07;68.57;;;32.63;;
6131;SDS011;3097;42.692;23.278;2023-11-21T07:21:33;60.53;;;31.90;;
6131;SDS011;3097;42.692;23.278;2023-11-21T07:24:00;58.97;;;31.07;;
6131;SDS011;3097;42.692;23.278;2023-11-21T07:26:29;64.30;;;30.17;;
6131;SDS011;3097;42.692;23.278;2023-11-21T07:28:55;57.60;;;28.33;;
6131;SDS011;3097;42.692;23.278;2023-11-21T07:31:21;56.13;;;28.00;;
6131;SDS011;3097;42.692;23.278;2023-11-21T07:33:47;59.70;;;29.87;;
6131;SDS011;3097;42.692;23.278;2023-11-21T07:36:13;57.30;;;30.57;;
6131;SDS011;3097;42.692;23.278;2023-11-21T07:38:39;56.80;;;28.27;;
6131;SDS011;3097;42.692;23.278;2023-11-21T07:41:05;54.23;;;27.43;;
6131;SDS011;3097;42.692;23.278;2023-11-21T07:43:33;51.70;;;27.97;;
6131;SDS011;3097;42.692;23.278;2023-11-21T07:46:03;55.23;;;28.07;;
6131;SDS011;3097;42.692;23.278;2023-11-21T07:48:29;51.13;;;28.17;;
6131;SDS011;3097;42.692;23.278;2023-11-21T07:50:56;56.70;;;27.67;;
6131;SDS011;3097;42.692;23.278;2023-11-21T07:53:23;62.73;;;29.43;;
6131;SDS011;3097;42.692;23.278;2023-11-21T07:55:50;57.17;;;29.00;;
6131;SDS011;3097;42.692;23.278;2023-11-21T07:58:17;54.27;;;28.63;;
6131;SDS011;3097;42.692;23.278;2023-11-21T08:00:43;59.93;;;29.90;;
6131;SDS011;3097;42.692;23.278;2023-11-21T08:03:08;57.70;;;29.77;;
6131;SDS011;3097;42.692;23.278;2023-11-21T08:05:34;57.27;;;29.03;;
6131;SDS011;3097;42.692;23.278;2023-11-21T08:07:59;59.90;;;28.07;;
6131;SDS011;3097;42.692;23.278;2023-11-21T08:10:25;63.67;;;28.73;;
6131;SDS011;3097;42.692;23.278;2023-11-21T08:12:51;55.93;;;29.07;;
6131;SDS011;3097;42.692;23.278;2023-11-21T08:15:17;59.77;;;29.50;;
6131;SDS011;3097;42.692;23.278;2023-11-21T08:17:42;61.27;;;31.37;;
6131;SDS011;3097;42.692;23.278;2023-11-21T08:20:08;62.77;;;33.97;;
6131;SDS011;3097;42.692;23.278;2023-11-21T08:22:36;65.83;;;32.97;;
6131;SDS011;3097;42.692;23.278;2023-11-21T08:25:02;64.37;;;33.57;;
6131;SDS011;3097;42.692;23.278;2023-11-21T08:27:29;58.60;;;32.23;;
6131;SDS011;3097;42.692;23.278;2023-11-21T08:29:55;52.70;;;28.77;;
6131;SDS011;3097;42.692;23.278;2023-11-21T08:32:21;49.13;;;27.10;;
6131;SDS011;3097;42.692;23.278;2023-11-21T08:34:47;48.40;;;28.40;;
6131;SDS011;3097;42.692;23.278;2023-11-21T08:37:16;59.73;;;30.80;;
6131;SDS011;3097;42.692;23.278;2023-11-21T08:39:43;51.07;;;27.53;;
6131;SDS011;3097;42.692;23.278;2023-11-21T08:42:10;50.60;;;27.70;;
6131;SDS011;3097;42.692;23.278;2023-11-21T08:44:36;42.30;;;25.07;;
6131;SDS011;3097;42.692;23.278;2023-11-21T08:47:01;44.23;;;24.00;;
6131;SDS011;3097;42.692;23.278;2023-11-21T08:49:27;47.10;;;23.67;;
6131;SDS011;3097;42.692;23.278;2023-11-21T08:51:54;48.40;;;23.97;;
6131;SDS011;3097;42.692;23.278;2023-11-21T08:54:24;61.33;;;31.47;;
6131;SDS011;3097;42.692;23.278;2023-11-21T08:56:53;62.07;;;32.60;;
6131;SDS011;3097;42.692;23.278;2023-11-21T08:59:20;57.60;;;32.67;;
6131;SDS011;3097;42.692;23.278;2023-11-21T09:01:46;58.83;;;33.23;;
6131;SDS011;3097;42.692;23.278;2023-11-21T09:04:12;74.17;;;33.17;;
6131;SDS011;3097;42.692;23.278;2023-11-21T09:06:38;58.17;;;32.30;;
6131;SDS011;3097;42.692;23.278;2023-11-21T09:09:05;66.23;;;34.20;;
6131;SDS011;3097;42.692;23.278;2023-11-21T09:11:31;61.00;;;32.87;;
6131;SDS011;3097;42.692;23.278;2023-11-21T09:13:59;60.33;;;31.30;;
6131;SDS011;3097;42.692;23.278;2023-11-21T09:16:25;57.83;;;31.73;;
6131;SDS011;3097;42.692;23.278;2023-11-21T09:18:51;59.83;;;31.13;;
6131;SDS011;3097;42.692;23.278;2023-11-21T09:21:16;60.47;;;29.07;;
6131;SDS011;3097;42.692;23.278;2023-11-21T09:23:45;50.40;;;29.00;;
6131;SDS011;3097;42.692;23.278;2023-11-21T09:26:11;54.23;;;29.40;;
6131;SDS011;3097;42.692;23.278;2023-11-21T09:28:37;48.77;;;28.20;;
6131;SDS011;3097;42.692;23.278;2023-11-21T09:31:03;49.27;;;28.70;;
6131;SDS011;3097;42.692;23.278;2023-11-21T09:33:29;51.33;;;29.07;;
6131;SDS011;3097;42.692;23.278;2023-11-21T09:35:56;55.07;;;29.20;;
6131;SDS011;3097;42.692;23.278;2023-11-21T09:38:22;56.70;;;31.77;;
6131;SDS011;3097;42.692;23.278;2023-11-21T09:40:48;61.17;;;31.53;;
6131;SDS011;3097;42.692;23.278;2023-11-21T09:43:18;60.97;;;32.70;;
6131;SDS011;3097;42.692;23.278;2023-11-21T09:45:48;57.83;;;33.20;;
6131;SDS011;3097;42.692;23.278;2023-11-21T09:48:24;58.93;;;34.33;;
6131;SDS011;3097;42.692;23.278;2023-11-21T09:50:51;57.90;;;34.37;;
6131;SDS011;3097;42.692;23.278;2023-11-21T09:53:19;67.03;;;35.13;;
6131;SDS011;3097;42.692;23.278;2023-11-21T09:55:47;64.67;;;34.17;;
6131;SDS011;3097;42.692;23.278;2023-11-21T09:58:15;54.13;;;32.67;;
6131;SDS011;3097;42.692;23.278;2023-11-21T10:00:41;63.77;;;33.83;;
6131;SDS011;3097;42.692;23.278;2023-11-21T10:03:09;58.03;;;33.00;;
6131;SDS011;3097;42.692;23.278;2023-11-21T10:05:35;60.47;;;33.53;;
6131;SDS011;3097;42.692;23.278;2023-11-21T10:08:02;57.03;;;30.00;;
6131;SDS011;3097;42.692;23.278;2023-11-21T10:10:38;53.10;;;29.30;;
6131;SDS011;3097;42.692;23.278;2023-11-21T10:13:07;53.47;;;29.57;;
6131;SDS011;3097;42.692;23.278;2023-11-21T10:15:37;53.63;;;27.80;;
6131;SDS011;3097;42.692;23.278;2023-11-21T10:18:04;53.83;;;28.80;;
6131;SDS011;3097;42.692;23.278;2023-11-21T10:20:31;48.27;;;25.97;;
6131;SDS011;3097;42.692;23.278;2023-11-21T10:22:59;56.73;;;27.70;;
6131;SDS011;3097;42.692;23.278;2023-11-21T10:25:27;46.47;;;26.07;;
6131;SDS011;3097;42.692;23.278;2023-11-21T10:27:56;47.70;;;25.40;;
6131;SDS011;3097;42.692;23.278;2023-11-21T10:30:31;47.60;;;27.00;;
6131;SDS011;3097;42.692;23.278;2023-11-21T10:32:59;48.37;;;26.30;;
6131;SDS011;3097;42.692;23.278;2023-11-21T10:35:28;49.23;;;26.70;;
6131;SDS011;3097;42.692;23.278;2023-11-21T10:38:03;48.73;;;26.73;;
6131;SDS011;3097;42.692;23.278;2023-11-21T10:40:29;43.43;;;25.70;;
6131;SDS011;3097;42.692;23.278;2023-11-21T10:42:54;50.87;;;27.90;;
6131;SDS011;3097;42.692;23.278;2023-11-21T10:45:31;51.83;;;28.30;;
6131;SDS011;3097;42.692;23.278;2023-11-21T10:47:56;49.07;;;27.93;;
6131;SDS011;3097;42.692;23.278;2023-11-21T10:50:23;41.87;;;24.67;;
6131;SDS011;3097;42.692;23.278;2023-11-21T10:52:48;41.60;;;24.47;;
6131;SDS011;3097;42.692;23.278;2023-11-21T10:55:17;41.63;;;23.97;;
6131;SDS011;3097;42.692;23.278;2023-11-21T10:57:49;41.17;;;24.00;;
6131;SDS011;3097;42.692;23.278;2023-11-21T11:00:18;44.60;;;24.03;;
6131;SDS011;3097;42.692;23.278;2023-11-21T11:02:50;36.73;;;22.40;;
6131;SDS011;3097;42.692;23.278;2023-11-21T11:05:20;44.20;;;25.37;;
6131;SDS011;3097;42.692;23.278;2023-11-21T11:07:50;50.10;;;24.83;;
6131;SDS011;3097;42.692;23.278;2023-11-21T11:10:24;42.57;;;24.53;;
6131;SDS011;3097;42.692;23.278;2023-11-21T11:12:52;39.23;;;22.43;;
6131;SDS011;3097;42.692;23.278;2023-11-21T11:15:19;32.13;;;20.63;;
6131;SDS011;3097;42.692;23.278;2023-11-21T11:17:45;31.90;;;20.47;;
6131;SDS011;3097;42.692;23.278;2023-11-21T11:20:12;28.33;;;17.60;;
6131;SDS011;3097;42.692;23.278;2023-11-21T11:23:32;28.83;;;17.73;;
6131;SDS011;3097;42.692;23.278;2023-11-21T11:29:07;24.77;;;15.40;;
6131;SDS011;3097;42.692;23.278;2023-11-21T11:39:34;32.17;;;19.83;;
6131;SDS011;3097;42.692;23.278;2023-11-21T11:42:02;30.80;;;18.57;;
6131;SDS011;3097;42.692;23.278;2023-11-21T11:47:28;28.60;;;19.37;;
6131;SDS011;3097;42.692;23.278;2023-11-21T11:53:14;39.47;;;23.73;;
6131;SDS011;3097;42.692;23.278;2023-11-21T11:55:40;47.20;;;26.67;;
6131;SDS011;3097;42.692;23.278;2023-11-21T11:58:06;44.13;;;24.73;;
6131;SDS011;3097;42.692;23.278;2023-11-21T12:00:33;41.73;;;24.73;;
6131;SDS011;3097;42.692;23.278;2023-11-21T12:03:03;45.63;;;22.33;;
6131;SDS011;3097;42.692;23.278;2023-11-21T12:05:31;35.20;;;21.50;;
6131;SDS011;3097;42.692;23.278;2023-11-21T12:07:59;39.53;;;22.00;;
6131;SDS011;3097;42.692;23.278;2023-11-21T12:10:28;46.10;;;25.37;;
6131;SDS011;3097;42.692;23.278;2023-11-21T12:12:55;44.73;;;26.57;;
6131;SDS011;3097;42.692;23.278;2023-11-21T12:15:23;66.90;;;38.47;;
6131;SDS011;3097;42.692;23.278;2023-11-21T12:17:49;75.13;;;39.30;;
6131;SDS011;3097;42.692;23.278;2023-11-21T12:20:16;71.50;;;42.07;;
6131;SDS011;3097;42.692;23.278;2023-11-21T12:22:45;84.07;;;46.13;;
6131;SDS011;3097;42.692;23.278;2023-11-21T12:25:14;75.93;;;41.97;;
6131;SDS011;3097;42.692;23.278;2023-11-21T12:27:46;79.50;;;42.40;;
6131;SDS011;3097;42.692;23.278;2023-11-21T12:30:14;73.80;;;40.03;;
6131;SDS011;3097;42.692;23.278;2023-11-21T12:32:43;64.47;;;35.60;;
6131;SDS011;3097;42.692;23.278;2023-11-21T12:35:09;59.40;;;33.67;;
6131;SDS011;3097;42.692;23.278;2023-11-21T12:37:36;67.33;;;36.13;;
6131;SDS011;3097;42.692;23.278;2023-11-21T12:40:04;68.77;;;38.00;;
6131;SDS011;3097;42.692;23.278;2023-11-21T12:42:32;79.03;;;42.27;;
6131;SDS011;3097;42.692;23.278;2023-11-21T12:48:01;57.73;;;32.93;;
6131;SDS011;3097;42.692;23.278;2023-11-21T12:50:32;55.43;;;28.87;;
6131;SDS011;3097;42.692;23.278;2023-11-21T12:52:59;54.63;;;30.30;;
6131;SDS011;3097;42.692;23.278;2023-11-21T12:55:26;48.60;;;28.07;;
6131;SDS011;3097;42.692;23.278;2023-11-21T12:57:55;52.63;;;28.17;;
6131;SDS011;3097;42.692;23.278;2023-11-21T13:00:33;47.77;;;28.00;;
6131;SDS011;3097;42.692;23.278;2023-11-21T13:03:08;46.63;;;27.87;;
6131;SDS011;3097;42.692;23.278;2023-11-21T13:05:37;53.90;;;29.20;;
6131;SDS011;3097;42.692;23.278;2023-11-21T13:08:05;49.80;;;27.63;;
6131;SDS011;3097;42.692;23.278;2023-11-21T13:10:33;44.67;;;26.13;;
6131;SDS011;3097;42.692;23.278;2023-11-21T13:13:02;42.17;;;24.93;;
6131;SDS011;3097;42.692;23.278;2023-11-21T13:15:39;44.13;;;24.80;;
6131;SDS011;3097;42.692;23.278;2023-11-21T13:18:06;43.10;;;25.33;;
6131;SDS011;3097;42.692;23.278;2023-11-21T13:20:32;42.70;;;25.37;;
6131;SDS011;3097;42.692;23.278;2023-11-21T13:22:57;44.07;;;26.63;;
6131;SDS011;3097;42.692;23.278;2023-11-21T13:25:29;58.57;;;32.47;;
6131;SDS011;3097;42.692;23.278;2023-11-21T13:27:59;57.77;;;34.47;;
6131;SDS011;3097;42.692;23.278;2023-11-21T13:30:25;58.03;;;32.47;;
6131;SDS011;3097;42.692;23.278;2023-11-21T13:32:53;61.50;;;34.97;;
6131;SDS011;3097;42.692;23.278;2023-11-21T13:35:22;74.60;;;39.20;;
6131;SDS011;3097;42.692;23.278;2023-11-21T13:38:02;77.07;;;43.27;;
6131;SDS011;3097;42.692;23.278;2023-11-21T13:40:31;105.07;;;51.73;;
6131;SDS011;3097;42.692;23.278;2023-11-21T13:42:59;109.37;;;55.47;;
6131;SDS011;3097;42.692;23.278;2023-11-21T13:45:29;119.73;;;60.53;;
6131;SDS011;3097;42.692;23.278;2023-11-21T13:47:56;124.90;;;63.00;;
6131;SDS011;3097;42.692;23.278;2023-11-21T13:50:27;125.90;;;62.00;;
6131;SDS011;3097;42.692;23.278;2023-11-21T13:52:59;113.30;;;61.73;;
6131;SDS011;3097;42.692;23.278;2023-11-21T13:55:36;117.57;;;56.37;;
6131;SDS011;3097;42.692;23.278;2023-11-21T13:58:02;107.30;;;54.93;;
6131;SDS011;3097;42.692;23.278;2023-11-21T14:00:29;103.93;;;52.97;;
6131;SDS011;3097;42.692;23.278;2023-11-21T14:03:10;101.40;;;54.17;;
6131;SDS011;3097;42.692;23.278;2023-11-21T14:05:44;101.87;;;54.00;;
6131;SDS011;3097;42.692;23.278;2023-11-21T14:08:12;103.43;;;53.57;;
6131;SDS011;3097;42.692;23.278;2023-11-21T14:10:42;110.63;;;56.37;;
6131;SDS011;3097;42.692;23.278;2023-11-21T14:13:09;110.43;;;56.47;;
6131;SDS011;3097;42.692;23.278;2023-11-21T14:15:41;104.27;;;54.17;;
6131;SDS011;3097;42.692;23.278;2023-11-21T14:18:07;103.33;;;54.23;;
6131;SDS011;3097;42.692;23.278;2023-11-21T14:20:35;106.13;;;55.67;;
6131;SDS011;3097;42.692;23.278;2023-11-21T14:23:03;100.80;;;52.90;;
6131;SDS011;3097;42.692;23.278;2023-11-21T14:25:31;109.10;;;54.17;;
6131;SDS011;3097;42.692;23.278;2023-11-21T14:27:57;101.37;;;52.53;;
6131;SDS011;3097;42.692;23.278;2023-11-21T14:30:23;97.63;;;51.23;;
6131;SDS011;3097;42.692;23.278;2023-11-21T14:32:50;93.63;;;50.83;;
6131;SDS011;3097;42.692;23.278;2023-11-21T14:35:16;93.97;;;51.53;;
6131;SDS011;3097;42.692;23.278;2023-11-21T14:37:42;97.63;;;52.27;;
6131;SDS011;3097;42.692;23.278;2023-11-21T14:40:08;102.43;;;51.07;;
6131;SDS011;3097;42.692;23.278;2023-11-21T14:42:34;96.00;;;50.73;;
6131;SDS011;3097;42.692;23.278;2023-11-21T14:45:03;99.00;;;51.63;;
6131;SDS011;3097;42.692;23.278;2023-11-21T14:47:32;100.80;;;51.97;;
6131;SDS011;3097;42.692;23.278;2023-11-21T14:49:59;99.00;;;54.40;;
6131;SDS011;3097;42.692;23.278;2023-11-21T14:52:37;113.40;;;58.80;;